Latest Coastal Weather Observations for Cape Willoughby

IDS60701

Issued at 4:41 pm CDT Friday 24 March 2017 (issued every 10 minutes, with the page automatically refreshed every 10 minutes)

About coastal observations | Map of coastal stations | Coastal observations for SA | Marine services | Other Formats
Station Details ID: 022803 Name: CAPE WILLOUGHBY Lat: -35.84 Lon: 138.13 Height: 55.0 m
Data from the previous 72 hours. | See also: Recent months at Cape Willoughby
Date/Time
CDT
Temp
°C
Wind Pressure Rain since
9am
mm
Weather Cloud Vis
km
Sea
Height
m
Swell
Dir  Spd
kts
Gust
kts
hPa Trend Height
m
Period
s
Dir
24/04:30pm 21.8 SSE 4 8 1012.7 - 0.0 - - - - - - -
24/04:00pm 22.6 ENE 3 4 1013.0 - 0.0 - - - - - - -
24/03:30pm 22.3 ENE 3 5 1012.9 - 0.0 - - - - - - -
24/03:00pm 22.1 ENE 4 5 1012.8 - 0.0 - - - - - - -
24/02:30pm 22.0 E 4 5 1013.2 - 0.0 - - - - - - -
24/02:00pm 22.3 ENE 4 5 1013.5 - 0.0 - - - - - - -
24/01:30pm 21.8 ENE 3 4 1013.7 - 0.0 - - - - - - -
24/01:00pm 21.9 ENE 5 6 1013.9 - 0.0 - - - - - - -
24/12:30pm 22.2 NE 4 5 1014.3 - 0.0 - - - - - - -
24/12:00pm 21.9 NNE 6 8 1014.3 - 0.0 - - - - - - -
24/11:30am 21.8 ENE 8 11 1014.5 - 0.0 - - - - - - -
24/11:00am 21.2 ENE 11 14 1014.5 - 0.0 - - - - - - -
24/10:30am 20.9 ENE 12 14 1014.5 - 0.0 - - - - - - -
24/10:00am 20.1 ENE 11 13 1014.7 - 0.0 - - - - - - -
24/09:30am 20.5 ENE 10 14 1015.0 - 0.0 - - - - - - -
24/09:00am 19.7 ENE 7 9 1015.2 - - - - - - - - -
24/08:30am 19.7 NNE 3 5 1015.5 - - - - - - - - -
24/08:00am 19.4 NE 5 8 1015.0 - - - - - - - - -
24/07:30am 19.1 ENE 8 11 1014.6 - - - - - - - - -
24/07:00am 19.1 ENE 10 13 1014.6 - - - - - - - - -
24/06:30am 19.0 E 8 10 1015.1 - - - - - - - - -
24/06:00am 19.0 E 7 9 1015.3 - - - - - - - - -
24/05:30am 19.0 E 9 10 1014.8 - - - - - - - - -
24/05:00am 19.0 E 9 11 1014.9 - - - - - - - - -
24/04:30am 19.0 E 10 12 1014.8 - - - - - - - - -
24/04:00am 18.9 E 8 11 1015.2 - - - - - - - - -
24/03:30am 18.9 E 9 11 1015.3 - - - - - - - - -
24/03:00am 18.9 E 11 13 1015.5 - 0.0 - - - - - - -
24/02:30am 18.9 E 11 13 1016.0 - - - - - - - - -
24/02:00am 19.0 ESE 7 10 1016.9 - - - - - - - - -
24/01:30am 19.1 ESE 9 12 1016.8 - - - - - - - - -
24/01:00am 19.0 ESE 6 7 1017.1 - - - - - - - - -
24/12:30am 19.0 ESE 5 8 1017.3 - - - - - - - - -
24/12:00am 18.9 SSE 4 5 1017.8 - - - - - - - - -
 
Date/Time
CDT
Temp
°C
Wind Pressure Rain since
9am
mm
Weather Cloud Vis
km
Sea
Height
m
Swell
Dir  Spd
kts
Gust
kts
hPa Trend Height
m
Period
s
Dir
23/11:30pm 18.7 SE 8 10 1017.6 - - - - - - - - -
23/11:00pm 18.7 SSE 5 7 1018.0 - - - - - - - - -
23/10:30pm 18.7 SSE 4 7 1018.0 - - - - - - - - -
23/10:00pm 18.6 S 6 8 1018.2 - - - - - - - - -
23/09:30pm 18.6 SSE 6 9 1017.8 - - - - - - - - -
23/09:00pm 18.5 SSE 7 10 1017.5 - - - - - - - - -
23/08:30pm 18.5 SSE 10 14 1017.1 - - - - - - - - -
23/08:00pm 18.5 SSE 13 16 1017.0 - - - - - - - - -
23/07:30pm 18.4 SSE 10 14 1017.1 - - - - - - - - -
23/07:00pm 18.4 SSE 12 15 1016.7 - - - - - - - - -
23/06:30pm 18.5 SSE 13 16 1016.4 - - - - - - - - -
23/06:00pm 18.7 SSE 10 12 1016.9 - - - - - - - - -
23/05:30pm 18.9 SE 12 15 1016.8 - - - - - - - - -
23/05:00pm 18.6 SE 14 17 1016.7 - - - - - - - - -
23/04:30pm 18.8 SE 16 19 1016.7 - - - - - - - - -
23/04:00pm 19.0 SE 14 17 1017.0 - - - - - - - - -
23/03:30pm 19.2 SE 14 17 1017.0 - - - - - - - - -
23/03:00pm 18.9 SE 12 15 1017.2 - - - - - - - - -
23/02:30pm 18.9 SE 11 15 1017.3 - - - - - - - - -
23/02:00pm 19.3 SE 10 14 1017.9 - - - - - - - - -
23/01:30pm 18.4 SE 10 13 1018.5 - - - - - - - - -
23/01:00pm 18.7 SE 10 13 1018.7 - - - - - - - - -
23/12:30pm 18.6 ESE 12 15 1018.8 - - - - - - - - -
23/12:00pm 18.7 SE 14 17 1019.2 - - - - - - - - -
23/11:30am 18.4 SE 13 16 1020.1 - 0.0 - - - - - - -
23/11:00am 18.3 SE 13 16 1020.2 - 0.0 - - - - - - -
23/10:30am 18.1 ESE 15 18 1019.8 - 0.0 - - - - - - -
23/10:00am 18.0 ESE 15 19 1019.6 - 0.0 - - - - - - -
23/09:30am 17.8 ESE 17 21 1019.2 - 0.0 - - - - - - -
23/09:00am 17.7 SE 16 20 1019.8 - - - - - - - - -
23/08:30am 17.5 ESE 17 20 1019.2 - - - - - - - - -
23/08:00am 17.7 SE 16 20 1019.1 - - - - - - - - -
23/07:30am 17.5 ESE 17 22 1018.6 - - - - - - - - -
23/07:00am 17.5 SE 22 25 1018.1 - - - - - - - - -
23/06:30am 17.6 SE 22 27 1017.6 - - - - - - - - -
23/06:00am 17.5 SE 23 28 1017.8 - - - - - - - - -
23/05:30am 17.3 SE 22 25 1017.7 - - - - - - - - -
23/05:00am 17.4 SE 20 23 1018.2 - - - - - - - - -
23/04:30am 17.4 SE 20 24 1018.1 - - - - - - - - -
23/04:00am 17.4 SE 19 22 1018.3 - - - - - - - - -
23/03:30am 17.4 SE 20 23 1018.3 - - - - - - - - -
23/03:00am 17.3 SE 19 23 1018.5 - - - - - - - - -
23/02:30am 17.3 SE 18 21 1018.7 - - - - - - - - -
23/02:00am 17.4 SE 20 25 1018.7 - - - - - - - - -
23/01:30am 17.5 SE 24 28 1018.5 - - - - - - - - -
23/01:00am 17.5 SE 21 25 1018.8 - - - - - - - - -
23/12:30am 17.4 SE 24 28 1018.9 - - - - - - - - -
23/12:00am 17.5 SE 24 28 1018.9 - - - - - - - - -
 
Date/Time
CDT
Temp
°C
Wind Pressure Rain since
9am
mm
Weather Cloud Vis
km
Sea
Height
m
Swell
Dir  Spd
kts
Gust
kts
hPa Trend Height
m
Period
s
Dir
22/11:30pm 17.4 SE 23 28 1018.9 - - - - - - - - -
22/11:00pm 17.3 SE 24 29 1019.2 - - - - - - - - -
22/10:30pm 17.3 SE 24 29 1019.2 - - - - - - - - -
22/10:00pm 17.3 SE 25 30 1019.2 - - - - - - - - -
22/09:30pm 17.4 SE 26 30 1018.9 - 0.0 - - - - - - -
22/09:00pm 17.3 SE 25 30 1018.8 - 0.0 - - - - - - -
22/08:30pm 17.3 SE 26 32 1018.4 - 0.0 - - - - - - -
22/08:00pm 17.5 SE 25 31 1018.3 - 0.0 - - - - - - -
22/07:30pm 17.4 SSE 24 30 1018.1 - 0.0 - - - - - - -
22/07:00pm 17.4 SSE 25 31 1017.9 - 0.0 - - - - - - -
22/06:30pm 17.3 SSE 24 31 1017.8 - 0.0 - - - - - - -
22/06:00pm 17.6 SSE 25 30 1017.6 - 0.0 - - - - - - -
22/05:30pm 17.4 SSE 23 29 1017.7 - 0.0 - - - - - - -
22/05:00pm 17.7 SSE 25 31 1017.5 - 0.0 - - - - - - -
22/04:30pm 17.7 SSE 26 31 1017.5 - 0.0 - - - - - - -
22/04:00pm 17.7 SSE 24 29 1017.9 - 0.0 - - - - - - -
22/03:30pm 17.9 SE 23 29 1018.0 - 0.0 - - - - - - -
22/03:00pm 18.1 SE 24 29 1018.0 - 0.0 - - - - - - -
22/02:30pm 18.2 SE 24 31 1018.0 - 0.0 - - - - - - -
22/02:00pm 18.3 SE 25 30 1018.1 - 0.0 - - - - - - -
22/01:30pm 18.1 SE 25 30 1018.3 - 0.0 - - - - - - -
22/01:00pm 18.1 SE 23 27 1018.9 - 0.0 - - - - - - -
22/12:30pm 18.1 SE 23 29 1019.1 - 0.0 - - - - - - -
22/12:00pm 17.8 SE 22 28 1019.4 - 0.0 - - - - - - -
22/11:30am 18.1 SE 24 28 1019.5 - 0.0 - - - - - - -
22/11:00am 18.1 SE 21 26 1019.7 - 0.0 - - - - - - -
22/10:30am 17.8 SE 24 30 1019.3 - 0.0 - - - - - - -
22/10:00am 17.8 SSE 22 28 1019.3 - 0.0 - - - - - - -
22/09:30am 17.8 SSE 23 28 1018.9 - 0.0 - - - - - - -
22/09:00am 18.1 SSE 20 26 1018.5 - - - - - - - - -
22/08:30am 18.2 SE 22 27 1018.0 - - - - - - - - -
22/08:00am 18.3 SE 24 30 1017.4 - - - - - - - - -
22/07:30am 18.3 SE 24 29 1016.8 - - - - - - - - -
22/07:00am 18.4 SE 24 30 1016.4 - - - - - - - - -
22/06:30am 18.3 SE 21 27 1016.2 - - - - - - - - -
22/06:00am 18.3 SE 25 30 1016.0 - - - - - - - - -
22/05:30am 18.3 SE 24 31 1015.8 - - - - - - - - -
22/05:00am 18.1 SE 24 32 1015.6 - - - - - - - - -
22/04:30am 18.3 SE 25 30 1015.2 - - - - - - - - -
22/04:00am 18.4 SE 25 31 1015.6 - - - - - - - - -
22/03:30am 18.4 SE 27 32 1015.2 - - - - - - - - -
22/03:00am 18.4 SE 25 31 1015.3 - 0.0 - - - - - - -
22/02:30am 18.5 SE 23 29 1015.8 - - - - - - - - -
22/02:00am 18.4 SE 25 30 1015.4 - - - - - - - - -
22/01:30am 18.4 SE 25 31 1015.3 - - - - - - - - -
22/01:00am 18.3 SE 24 31 1015.1 - - - - - - - - -
22/12:30am 18.5 SE 22 29 1015.2 - - - - - - - - -
22/12:00am 18.4 SE 26 32 1014.8 - - - - - - - - -
 
Date/Time
CDT
Temp
°C
Wind Pressure Rain since
9am
mm
Weather Cloud Vis
km
Sea
Height
m
Swell
Dir  Spd
kts
Gust
kts
hPa Trend Height
m
Period
s
Dir
21/11:30pm 18.4 SSE 24 31 1014.7 - - - - - - - - -
21/11:00pm 18.4 SE 23 29 1014.6 - - - - - - - - -
21/10:30pm 18.6 SE 26 33 1014.2 - - - - - - - - -
21/10:00pm 18.6 SSE 27 33 1014.0 - - - - - - - - -
21/09:30pm 18.6 SSE 26 32 1013.4 - - - - - - - - -
21/09:00pm 18.7 SSE 24 31 1013.1 - 0.0 - - - - - - -
21/08:30pm 18.9 SSE 23 30 1012.8 - - - - - - - - -
21/08:00pm 18.7 SSE 19 24 1012.7 - - - - - - - - -
21/07:30pm 18.8 SSE 20 25 1012.2 - - - - - - - - -
21/07:00pm 18.8 SSE 21 25 1011.9 - - - - - - - - -
21/06:30pm 18.8 SSE 20 24 1011.7 - - - - - - - - -
21/06:00pm 18.8 SSE 16 21 1011.6 - - - - - - - - -
21/05:30pm 18.9 SSE 18 22 1011.5 - - - - - - - - -
21/05:00pm 19.2 SSE 17 22 1011.2 - - - - - - - - -

Other Formats:

Comma delimited format used in spreadsheet applications
http://www.bom.gov.au/fwo/IDS60701/IDS60701.94822.axf

JavaScript Object Notation format (JSON) in row-major order
http://www.bom.gov.au/fwo/IDS60701/IDS60701.94822.json